x

8516945 - Kings Point, Ny (kptn6) Weather Station

11:30pm - Tue 5th May 2015 All times are EDT. -4 hours from GMT.

  • Wind
    1mph, 2mph gusts
  • Sea Temp 48°f
  • Air Temp 65°f
  • Sea Pressure 1021.3mb
  • 8516945 - Kings Point, Ny
  • 8516945 - Kings Point, Ny

More Historic Weather Station data

Upgrade to MSW Pro to gain access to the past 30 days of data for over 8000 Wavebouys and Weather Stations around the globe.

Join Pro

Comparision Forecast

View Surf forecast
   
Tue 05/05 11:30pm 1 2 mph 1021.3mb 48f 65f
11:24pm 2 3 mph 1021.3mb 48f 65f
11:18pm 2 3 mph 1021.4mb 48f 65f
11:12pm 2 3 mph 1021.4mb 48f 65f
11:06pm 2 3 mph 1021.4mb 48f 66f
11:00pm 3
mph
1021.3mb 48f 66f
10:54pm 3 5 mph 1021.3mb 47f 66f
10:48pm 3 5 mph 1021.3mb 48f 66f
10:42pm 3 5 mph 1021.3mb 48f 66f
10:36pm 3 5 mph 1021.3mb 48f 66f
10:30pm 5 6 mph 1021.3mb 49f 65f
10:24pm 3 5 mph 1021.4mb 49f 66f
10:18pm 2 6 mph 1021.4mb 50f 66f
10:12pm 5 6 mph 1021.3mb 51f 66f
10:06pm 5 7 mph 1021.3mb 51f 66f
10:00pm 6 7 mph 1021.4mb 51f 66f
9:54pm 6 8 mph 1021.4mb 51f 66f
9:48pm  -  mph - 52f -
9:42pm 7
mph
1021.3mb 52f 66f
9:36pm 6 7 mph 1021.2mb 52f 66f
9:30pm 5 7 mph 1021.1mb 53f 67f
9:24pm 5 6 mph 1021mb 53f 67f
9:18pm 5 8 mph 1021mb 53f -
9:12pm 7 9 mph 1021mb 54f 65f
9:06pm 8 11 mph 1021mb 55f 65f
9:00pm 10 11 mph 1021mb 56f 65f
8:54pm 10 13 mph 1020.9mb 56f 66f
8:48pm 11 13 mph 1020.9mb 56f -
8:42pm 10 11 mph 1020.8mb 57f 67f
8:36pm 11
mph
1020.8mb 57f 67f
8:30pm  -  mph - 57f -
8:24pm 9 10 mph 1020.8mb 57f 67f
8:18pm 8 10 mph 1020.8mb 57f 67f
8:12pm 7 9 mph 1020.7mb 58f 67f
8:06pm 8 10 mph 1020.7mb 58f 67f
8:00pm 8 10 mph 1020.7mb 58f 68f
7:54pm 9 11 mph 1020.7mb 58f 67f
7:48pm  -  mph - 58f -
7:42pm 10 11 mph 1020.6mb 58f 68f
7:36pm 9 11 mph 1020.6mb 58f 68f
7:30pm 9 14 mph 1020.6mb 58f 68f
7:24pm 10 14 mph 1020.6mb 58f 66f
7:18pm 9 11 mph 1020.6mb 58f 64f
7:12pm 11 14 mph 1020.4mb 58f 64f
7:06pm 13 15 mph 1020.4mb 58f 67f
7:00pm 10 13 mph 1020.3mb 58f 66f
6:54pm 10 13 mph 1020.2mb 58f 65f
6:48pm 10 14 mph 1020.2mb 58f 64f
6:42pm 13 16 mph 1020.2mb 58f 65f
6:36pm 15 16 mph 1020.2mb 58f 67f
6:30pm 15 16 mph 1020.1mb 58f 66f
6:24pm 10 13 mph 1020.1mb 59f 65f
6:18pm 11 14 mph 1020mb 59f 67f
6:12pm 11 14 mph 1020mb 59f 70f
6:06pm 11 15 mph 1020.1mb 58f 70f
6:00pm 14 17 mph 1020.1mb 58f 69f
5:54pm 14 16 mph 1020.1mb 58f 69f
5:48pm 14 15 mph 1020.1mb 58f 70f
5:42pm 14 16 mph 1020.1mb 58f 69f
5:36pm 14 16 mph 1019.9mb 58f 70f
5:30pm 16 18 mph - 57f -
5:24pm 15 17 mph 1019.9mb 57f 72f
5:18pm  -  mph - 56f -
5:12pm 14 17 mph 1019.9mb 54f 73f
5:06pm 13 15 mph 1019.9mb 53f 75f
5:00pm 7 8 mph 1019.9mb 53f 77f
4:54pm 7 8 mph 1020mb 51f 77f
4:48pm 7 8 mph 1020mb 51f 77f
4:42pm 5 8 mph 1020mb - 78f
4:36pm 6 7 mph 1020.1mb - 78f
4:30pm 7 8 mph 1020.1mb - 79f
4:24pm 7 8 mph 1020.2mb - 78f
4:12pm 5 6 mph 1020.3mb - 78f
4:06pm 3 5 mph 1020.4mb - 79f
4:00pm  -  2 mph 1020.6mb - 79f
3:54pm 2 5 mph 1020.7mb - 78f
3:48pm 3 5 mph - - -
3:42pm 3 5 mph 1020.8mb - 77f
3:36pm 1 2 mph 1020.9mb - 80f
3:30pm 3
mph
1021mb - 79f
3:24pm 2 3 mph 1021.1mb - 79f
3:18pm 2 3 mph 1021.1mb - 77f
3:12pm 3 5 mph 1021.2mb - 78f
3:06pm 2 3 mph 1021.2mb - 79f
3:00pm 3 6 mph 1021.2mb - 79f
2:54pm 2 3 mph 1021.2mb - 78f
2:48pm 3 6 mph 1021.2mb - 78f
2:42pm 3 5 mph 1021.2mb - 79f
2:36pm 2 5 mph 1021.4mb - 78f
2:30pm 5 7 mph 1021.5mb - 78f
2:24pm 3 6 mph 1021.7mb - 78f
2:12pm 2 3 mph 1021.8mb - 76f
2:06pm 3
mph
1021.9mb - 78f
2:00pm  -  2 mph 1022mb - 77f
1:54pm  -  1 mph 1022.1mb - 76f
1:48pm 1 2 mph 1022mb - -
1:42pm 2 3 mph 1022mb - 73f
1:36pm 3
mph
1022.1mb - 72f
1:30pm 3 5 mph 1022.1mb - 73f
1:24pm 3 5 mph 1022.2mb - 70f
1:18pm  -  2 mph 1022.1mb - 72f
1:12pm 1
mph
1022.2mb - 73f
1:06pm  -  mph 1022.3mb - 73f
1:00pm  -  1 mph 1022.4mb - 72f
12:54pm  -  1 mph 1022.4mb - 72f
12:48pm 2 3 mph 1022.4mb - 70f
12:42pm 3
mph
1022.4mb - 70f
12:36pm  -  1 mph 1022.4mb - 72f
12:30pm  -  1 mph 1022.5mb - 72f
12:24pm  -  2 mph 1022.5mb - 70f
12:18pm 3
mph
1022.6mb - 67f
12:12pm 2 3 mph 1022.6mb - 67f
12:06pm  -  mph 1022.7mb - 72f
12:00pm  -  mph 1022.7mb - 71f
11:54am  -  mph 1022.7mb - 71f
11:48am  -  mph 1022.7mb - 71f
11:42am  -  1 mph 1022.7mb - 70f
11:36am  -  1 mph 1022.7mb - 69f
11:30am  -  3 mph 1022.7mb - 72f
11:24am 2 3 mph 1022.8mb - 72f
11:18am  -  2 mph 1022.8mb - 70f
11:12am  -  2 mph 1022.7mb - 70f
11:06am 1 3 mph 1022.7mb - 69f
11:00am 2 3 mph 1022.6mb - 68f
10:54am 2 3 mph 1022.6mb - 71f
10:48am 3 6 mph 1022.5mb - 72f
10:42am 5 6 mph 1022.4mb - 71f
10:36am 3 6 mph 1022.4mb - 71f
10:30am 3 6 mph 1022.4mb - 71f
10:12am 3 6 mph 1022.3mb - 72f
10:06am 1 2 mph 1022.2mb - 73f
10:00am  -  2 mph 1022.1mb - 73f
9:54am  -  1 mph 1022.1mb - 73f
9:48am  -  2 mph 1022.1mb - 72f
9:42am 2
mph
1022mb - 71f
9:36am 1 2 mph 1022mb - 71f
9:30am 1 2 mph 1022mb - 71f
9:24am  -  1 mph 1022mb - 70f
9:18am  -  1 mph 1022mb - 70f
9:12am 1 2 mph 1022mb - 70f
9:06am  -  1 mph 1022mb - 70f
9:00am  -  2 mph 1021.9mb - 70f
8:54am 1 2 mph 1021.9mb 66f 70f
8:48am  -  1 mph 1021.9mb 65f 70f
8:42am  -  1 mph 1021.9mb 64f 70f
8:36am  -  1 mph 1021.9mb 62f 69f
8:30am  -  2 mph 1021.8mb 61f 68f
8:24am 1 2 mph 1021.7mb 60f 67f
8:18am 2 3 mph 1021.7mb 60f 67f
8:12am 2 3 mph 1021.8mb 60f 66f
8:06am 2 3 mph 1021.7mb 59f 66f
8:00am 3
mph
1021.7mb 58f 66f
7:54am  -  mph - 57f -
7:48am  -  mph - 56f -
7:42am 3 6 mph 1021.5mb 56f 65f
7:36am 5 6 mph 1021.5mb 56f 64f
7:30am 5 6 mph 1021.4mb 56f 64f
7:24am 5 6 mph 1021.3mb 56f 64f
7:18am  -  mph - 56f -
7:12am  -  mph - 55f -
7:06am 3 5 mph 1021mb 54f 63f
7:00am 3 6 mph 1020.9mb 53f 63f
6:54am 5 6 mph 1020.9mb 53f 63f
6:48am 5
mph
- 53f -
6:42am 3 5 mph 1020.8mb 53f 64f
6:36am 5 6 mph 1020.8mb 53f 64f
6:30am 5 6 mph 1020.8mb 53f 64f
6:24am 5 6 mph 1020.7mb 53f 64f
6:18am 5 6 mph 1020.6mb 52f -
6:12am 6 7 mph 1020.5mb 52f 63f
6:06am 7 8 mph 1020.5mb 52f 62f
6:00am 7 8 mph 1020.5mb 52f 62f
5:54am 7
mph
1020.5mb 52f 64f
5:48am 5 6 mph 1020.5mb 51f 64f
5:42am 6
mph
1020.5mb 51f 64f
5:36am 3 5 mph 1020.5mb 51f 65f
5:30am 3
mph
1020.5mb 51f 65f
5:24am 2 3 mph 1020.4mb 51f 65f
5:18am 2
mph
1020.4mb 51f 65f
5:12am 1 3 mph 1020.3mb 51f 64f
5:06am 3
mph
1020.4mb 51f 64f
5:00am 3 5 mph 1020.5mb 50f 63f
4:54am 3 6 mph 1020.5mb 50f 64f
4:48am  -  mph - 50f -
4:42am 3 6 mph 1020.5mb 49f 65f
4:36am 5 7 mph 1020.5mb 49f 64f
4:30am 3 6 mph 1020.4mb 49f 64f
4:24am 3 6 mph 1020.5mb 49f 65f
4:18am  -  mph - 49f -
4:12am  -  mph - 49f -
4:06am  -  6 mph 1020.2mb 49f 64f
4:00am 6 10 mph 1020mb 49f 64f
3:54am 8 10 mph 1020mb 48f 64f
3:48am  -  mph - 48f -
3:42am 8 10 mph 1020mb 48f 63f
3:36am 9 11 mph 1020.1mb 48f 63f
3:30am 10 11 mph 1020.2mb 48f -
3:24am 10 11 mph 1020.3mb 48f 64f
3:18am  -  mph - 48f -
3:12am 10
mph
1020.3mb 48f 64f
3:06am  -  mph - 48f -
3:00am  -  mph - 48f -
2:54am 10 11 mph 1020.3mb 48f 64f
2:48am  -  mph - 48f -
2:42am  -  mph - 48f -
2:36am 9 11 mph 1020.4mb 48f 64f
2:30am  -  mph - 48f -
2:24am  -  mph - 48f -
2:18am  -  mph - 48f -
2:12am  -  mph - 48f -
2:06am  -  mph - 48f -
2:00am  -  mph - 48f -
1:54am 9 13 mph 1020.7mb 48f 65f
1:48am 9 10 mph 1020.8mb 48f 64f
1:42am 8 11 mph 1020.8mb 48f 64f
1:36am 8 11 mph 1020.8mb 48f 64f
1:30am 9 11 mph 1020.8mb 48f 64f
1:24am 9 11 mph 1020.8mb 48f 64f
1:18am 9 11 mph 1020.8mb 48f -
1:12am 10 11 mph 1020.9mb 48f 64f
1:06am 9 11 mph 1020.9mb 48f 64f
1:00am 8 10 mph 1020.9mb 48f 64f
12:54am 9 10 mph 1021mb 48f 64f
12:48am 9 11 mph - 48f -
12:42am 9 11 mph 1020.9mb 48f 64f
12:36am 10 13 mph 1020.8mb 48f 65f
12:30am 10 13 mph 1020.9mb 48f 65f
12:24am 11 13 mph 1021mb 48f 65f
12:18am  -  mph - 48f -
12:12am 10 11 mph 1020.9mb 48f 64f
12:06am 11 13 mph 1020.9mb 48f 64f
12:00am 10 13 mph 1020.9mb 48f 63f
Mon 05/04 11:54pm 10 11 mph 1020.9mb 48f 63f
11:48pm 10 14 mph 1020.8mb 48f 62f
11:42pm 11 15 mph 1020.7mb 48f 63f
11:36pm 13 14 mph 1020.7mb 48f 64f
11:30pm 13 14 mph 1020.7mb 48f 64f
11:24pm 13 14 mph 1020.7mb 48f 64f
11:18pm 13 14 mph 1020.7mb 48f 64f
11:12pm 13 15 mph 1020.7mb 48f 63f
11:06pm 13 14 mph 1020.6mb 48f 64f
11:00pm 11 15 mph 1020.6mb 48f 63f
10:54pm 13 17 mph 1020.7mb 48f 64f
10:48pm 14 15 mph 1020.7mb 48f 65f
10:42pm 14 16 mph 1020.6mb 48f 65f
10:36pm  -  mph - 49f -
10:30pm  -  mph - 49f -
10:24pm 15 17 mph 1020.6mb 48f 66f
10:18pm  -  mph - 48f -
10:12pm 14 18 mph 1020.6mb 48f 65f
10:06pm 16 18 mph 1020.5mb 48f 67f
10:00pm 16 17 mph 1020.5mb 48f 66f
9:54pm  -  mph - 48f -
9:48pm  -  mph - 48f -
9:42pm 16 22 mph 1020.4mb 49f 68f
9:36pm 16 20 mph 1020.4mb 50f 67f
9:30pm 16 20 mph 1020.3mb 50f 67f
9:24pm 16 20 mph 1020.3mb 51f 68f
9:18pm  -  mph - 51f -
9:12pm  -  mph - 51f -
9:06pm  -  mph - 51f -
9:00pm 13 15 mph 1020.1mb 51f -
8:54pm 14 15 mph 1020.1mb 52f 67f
8:48pm  -  mph - 52f -
8:42pm 14 18 mph 1019.9mb 52f 66f
8:36pm 14 15 mph 1019.8mb 52f 67f
8:30pm 14 20 mph 1019.8mb 53f 67f
8:24pm 14 18 mph 1019.8mb 53f 67f
8:18pm 14 16 mph 1019.7mb 53f 66f
8:12pm 13 16 mph 1019.6mb 53f 66f
8:06pm 14 16 mph 1019.6mb 53f 67f
8:00pm  -  mph - 54f -
7:54pm 16 21 mph 1019.5mb 54f 67f
7:48pm 15 17 mph 1019.4mb 54f 67f
7:42pm 15 18 mph 1019.4mb 54f 69f
7:36pm 15 18 mph 1019.3mb 54f 68f
7:30pm 15 18 mph 1019.3mb 54f 68f
7:24pm 16 18 mph 1019.3mb 55f 69f
7:18pm 17 20 mph 1019.3mb 55f 69f
7:12pm 17 20 mph 1019.3mb 55f 69f
7:06pm 18 21 mph 1019.3mb 55f 69f
7:00pm 18 20 mph 1019.2mb 55f 69f
6:54pm 17 18 mph 1019.3mb 55f 69f
6:48pm 17 20 mph 1019.3mb 54f 69f
6:42pm 17 21 mph 1019.3mb 54f 69f
6:36pm 20 21 mph 1019.4mb 54f 69f
6:30pm 17 21 mph 1019.4mb 54f 68f
6:24pm 20 23 mph 1019.4mb 54f 68f
6:18pm  -  mph - 54f -
6:12pm 17 24 mph 1019.4mb 54f 68f
6:06pm 17 20 mph 1019.5mb 53f 68f
6:00pm 18 23 mph 1019.5mb 53f 69f
5:54pm 17 20 mph 1019.4mb 53f 69f
5:48pm 16 24 mph 1019.4mb 53f 67f
5:42pm 22 24 mph 1019.4mb 53f 70f
5:36pm  -  mph - 52f -
5:30pm 21 23 mph - 52f -
5:24pm 18 23 mph 1019.6mb 52f 69f
5:18pm  -  mph - 52f -
5:12pm 21 24 mph 1019.7mb 52f 71f
5:06pm 21 26 mph 1019.7mb 52f 71f
5:00pm 22 24 mph 1019.7mb 51f 70f
4:54pm 17 21 mph 1019.8mb 51f 71f
4:48pm 20 22 mph 1019.8mb 51f 70f
4:42pm 20 22 mph 1019.8mb 51f 70f
4:36pm 23 25 mph 1019.9mb 50f 73f
4:30pm 22 28 mph 1019.9mb 50f 72f
4:24pm 23 28 mph 1020mb 50f 73f
4:18pm 20 26 mph 1020.1mb 49f 72f
4:12pm 24 28 mph 1020.1mb 49f 73f
4:06pm 22 28 mph 1020.2mb 49f 72f
4:00pm 21 25 mph 1020.2mb 49f 72f
3:54pm 17 23 mph 1020.3mb 49f 71f
3:48pm 20 22 mph 1020.3mb 49f 71f
3:42pm 20 23 mph 1020.3mb 49f 72f
3:36pm 21 24 mph 1020.3mb 49f 71f
3:30pm 21 22 mph 1020.4mb 49f 72f
3:24pm 18 22 mph 1020.5mb 48f 71f
3:18pm 21 23 mph 1020.6mb 48f 71f
3:12pm 17 21 mph 1020.6mb 48f 69f
3:06pm 16 21 mph 1020.7mb 48f 69f
3:00pm 18 22 mph 1020.7mb 48f 70f
2:54pm 21 24 mph 1020.9mb 48f 71f
2:48pm 18 22 mph 1020.9mb 48f 71f
2:42pm 15 21 mph 1020.9mb 48f 68f
2:36pm 20 22 mph 1020.8mb 48f 71f
2:30pm 16 20 mph 1020.8mb 47f 71f
2:24pm 18 20 mph 1020.9mb 47f 71f
2:18pm 17 18 mph 1021mb 48f 71f
2:12pm 16 20 mph 1021mb 47f 70f
2:06pm 13 16 mph 1021.1mb 47f 68f
2:00pm 14 16 mph 1021.1mb 47f 68f
1:54pm 15 17 mph 1021.1mb 47f 72f
1:48pm 15 20 mph 1021.1mb 47f 72f
1:42pm 11 15 mph 1021.2mb 47f 69f
1:36pm 14 16 mph 1021.2mb 47f 70f
1:30pm 14 15 mph 1021.2mb 47f 72f
1:24pm 13 15 mph 1021.3mb 47f 71f
1:18pm  -  mph - 47f -
1:12pm  -  mph - 47f -
1:06pm 11 17 mph 1021.4mb 47f 72f
1:00pm 14 16 mph 1021.4mb 47f 73f
12:54pm 14 16 mph 1021.5mb 47f 74f
12:48pm  -  mph - 47f -
12:42pm 11 14 mph 1021.6mb 47f 72f
12:36pm 9 13 mph 1021.7mb 47f 70f
12:30pm 7 9 mph 1021.8mb 47f 70f
12:24pm 6 8 mph 1021.9mb 47f 69f
12:18pm  -  mph - 47f -
12:12pm 7 8 mph 1022mb 47f 67f
12:06pm 2 3 mph 1022.1mb 47f 64f
12:00pm 2
mph
1022.2mb 47f 65f
11:54am 2 3 mph 1022.2mb 47f 61f
11:48am  -  6 mph 1022.2mb 47f -
11:42am 2 6 mph 1022.4mb 47f 61f
11:36am 6 7 mph 1022.4mb 47f 60f
11:30am 5 6 mph 1022.5mb 47f 61f
11:24am  -  mph - 47f -
11:18am  -  mph - 47f -
11:12am 6 8 mph 1022.6mb 47f 60f
11:06am 6 7 mph 1022.5mb 47f 59f
11:00am 6 7 mph 1022.5mb 47f 59f
10:54am 6 7 mph 1022.5mb 47f 58f
10:48am  -  mph - 47f -
10:42am 6 7 mph 1022.5mb 47f 58f
10:36am 6 7 mph 1022.6mb 47f 58f
10:30am  -  mph - 47f -
10:24am 5 7 mph 1022.6mb 47f 58f
10:18am  -  mph - 47f -
10:12am 6 7 mph 1022.6mb 47f 57f
10:06am 6 7 mph 1022.6mb 47f 57f
10:00am 6 7 mph 1022.7mb 47f 57f
9:54am 6 7 mph 1022.6mb 47f 57f
9:48am 6 8 mph 1022.6mb 47f 56f
9:42am 6 7 mph 1022.6mb 47f 56f
9:36am 6 8 mph 1022.5mb 47f 56f
9:30am 6 7 mph 1022.5mb 47f 56f
9:24am 6 7 mph 1022.5mb 47f 55f
9:18am 5 7 mph 1022.6mb 47f 55f
9:12am  -  mph - 48f -
9:06am  -  mph - 49f -
9:00am 5 7 mph 1022.6mb 49f 54f
8:54am 6 7 mph 1022.6mb 49f 54f
8:48am  -  mph - 49f -
8:42am 5 6 mph 1022.6mb 50f 53f
8:36am  -  mph - 50f -
8:30am 5 6 mph 1022.6mb 50f 53f
8:24am 5 6 mph 1022.6mb 51f 53f
8:18am  -  mph - 51f -
8:12am 3 5 mph 1022.6mb 52f 53f
8:06am 3 5 mph 1022.5mb 53f 53f
8:00am 3 5 mph 1022.6mb 53f 53f
7:54am  -  mph - 52f -
7:48am  -  mph - 52f -
7:42am 3 5 mph 1022.5mb 52f 52f
7:36am 2 3 mph 1022.5mb 52f 52f
7:30am 2 3 mph 1022.4mb 52f 52f
7:24am  -  2 mph 1022.4mb 52f 52f
7:18am  -  mph 1022.4mb 52f 53f
7:12am  -  mph 1022.3mb 51f 53f
7:06am  -  mph 1022.3mb 50f 54f
7:00am  -  mph 1022.3mb 49f 53f
6:54am  -  mph 1022.2mb 49f 53f
6:48am  -  mph 1022.2mb 49f -
6:42am  -  mph 1022.1mb 49f 53f
6:36am  -  mph 1022mb 49f 53f
6:30am  -  mph 1022mb 49f 52f
6:24am  -  mph 1022mb 49f 52f
6:18am  -  mph 1021.9mb 49f 52f
6:12am  -  1 mph 1021.8mb 49f 52f
6:06am  -  mph 1021.8mb 49f 51f
6:00am  -  mph 1021.7mb 49f 51f
5:54am  -  mph 1021.6mb 49f 51f
5:48am  -  1 mph 1021.5mb 49f 52f
5:42am  -  1 mph 1021.4mb 49f 52f
5:36am  -  1 mph 1021.3mb 49f 52f
5:30am  -  1 mph 1021.3mb 49f 52f
5:24am  -  1 mph 1021.2mb 50f 52f
5:18am  -  1 mph 1021.2mb 50f 52f
5:12am  -  1 mph 1021.2mb 51f 52f
5:06am  -  2 mph 1021.2mb 51f 52f
5:00am  -  1 mph 1021.1mb 51f 52f
4:54am  -  2 mph 1021.1mb 51f 52f
4:48am  -  1 mph 1021.1mb 51f 52f
4:42am  -  1 mph 1021.1mb 50f 52f
4:36am  -  1 mph 1021.1mb 50f 53f
4:30am 1 3 mph 1021.1mb 50f 53f
4:24am 2 6 mph 1021mb 50f 53f
4:18am 5 6 mph 1020.9mb 50f 53f
4:12am 3 6 mph 1020.9mb 49f 53f
4:06am 3 6 mph 1020.9mb 49f 53f
4:00am 3 6 mph 1020.9mb 49f 53f
3:54am 5
mph
1020.9mb 49f 52f
3:48am 3
mph
1021mb 49f 52f
3:42am 3
mph
1021mb 49f 53f
3:36am 2
mph
1020.9mb 49f 53f
3:30am  -  2 mph 1020.9mb 48f 53f
3:24am 1 3 mph 1020.9mb 48f 53f
3:18am 3 5 mph 1020.8mb 48f 53f
3:12am 3 5 mph 1020.8mb 48f 53f
3:06am 3 5 mph 1020.8mb 48f 53f
3:00am 3 5 mph 1020.7mb 48f 53f
2:54am  -  mph - 48f -
2:48am  -  mph - 48f -
2:42am  -  mph - 47f -
2:36am  -  mph - 47f -
2:30am  -  mph - 47f -
2:24am 3 5 mph - 47f -
2:18am  -  mph - 47f -
2:12am  -  mph - 47f -
2:06am  -  mph - 47f -
2:00am  -  mph - 47f -
1:54am 2
mph
1021mb 47f 53f
1:48am  -  1 mph 1021mb 47f 53f
1:42am  -  1 mph 1021mb 47f 54f
1:36am  -  mph - 47f -
1:30am 2 5 mph - 47f -
1:24am 2 3 mph 1020.9mb 47f 54f
1:18am  -  mph - 47f -
1:12am 5
mph
1020.9mb 47f 54f
1:06am  -  mph - 47f -
1:00am  -  mph - 47f -
12:54am 3 6 mph 1020.8mb 47f 54f
12:48am  -  mph - 47f -
12:42am 6
mph
1020.8mb 47f 54f
12:36am 5 6 mph 1020.7mb 47f 54f
12:30am 5 7 mph 1020.6mb 47f 55f
12:24am 5 6 mph 1020.5mb 47f 55f
12:18am 5 6 mph 1020.6mb 47f 55f
12:12am 5 6 mph 1020.5mb 47f 55f
12:06am  -  mph - 47f -
12:00am  -  mph - 47f -
Sun 05/03 11:54pm 5 7 mph 1020.4mb 47f 55f
11:48pm 6 7 mph 1020.4mb 47f 55f
11:42pm 3 6 mph 1020.4mb 48f 55f
11:36pm 5 8 mph 1020.3mb 48f 55f
11:30pm 7 8 mph 1020.3mb 47f 55f
11:24pm 8
mph
1020.2mb 47f 55f
11:18pm  -  mph - 47f -
11:12pm  -  mph - 47f -
11:06pm 7 8 mph 1020.1mb 47f 55f
11:00pm 5 8 mph 1020.1mb 47f 56f
10:54pm 6 8 mph 1020.1mb 47f 56f
10:48pm  -  mph - 47f -
10:42pm 8 9 mph 1020.1mb 47f 56f
10:36pm 9
mph
1020mb 47f 56f
10:30pm 8 10 mph 1019.9mb 47f 57f
10:24pm  -  mph - 47f -
10:18pm  -  mph - 47f -
10:12pm 7 10 mph 1019.9mb 47f 57f
10:06pm 7 8 mph 1019.9mb 47f 58f
10:00pm 7 9 mph 1019.8mb 47f 59f
9:54pm  -  mph - 47f -
9:48pm  -  mph - 47f -
9:42pm 7 10 mph 1019.6mb 47f 59f
9:36pm 8 11 mph 1019.6mb 47f 60f
9:30pm 8 10 mph 1019.5mb 48f 60f
9:24pm 8 10 mph 1019.4mb 48f 60f
9:18pm  -  mph - 48f -
9:12pm 7 10 mph 1019.2mb 48f 60f
9:06pm 7 10 mph 1019.2mb 49f 60f
9:00pm 7 10 mph 1019.1mb 49f 60f
8:54pm 9 13 mph 1019.1mb 49f 58f
8:48pm  -  mph - 50f -
8:42pm 11 14 mph 1018.9mb 50f 60f
8:36pm 8 10 mph 1018.8mb 51f 60f
8:30pm 9 11 mph 1018.8mb 51f 60f
8:24pm 10 13 mph 1018.8mb 51f 60f
8:18pm 9 13 mph 1018.7mb 52f 60f
8:12pm 8 11 mph 1018.6mb 52f 60f
8:06pm 9 13 mph 1018.6mb 52f 60f
8:00pm 10 13 mph 1018.5mb 52f 59f
7:54pm 11 14 mph 1018.6mb 53f 60f
7:48pm 13 15 mph 1018.5mb 53f 59f
7:42pm 13 15 mph 1018.4mb 53f 60f
7:36pm 11 15 mph 1018.4mb 52f 60f
7:30pm 14 16 mph 1018.3mb 53f 60f
7:24pm 13 16 mph 1018.2mb 53f 60f
7:18pm 14 16 mph 1018.2mb 53f 61f
7:12pm 14 17 mph 1018.2mb 53f 61f
7:06pm 15 16 mph 1018.2mb 53f 61f
7:00pm 14 16 mph 1018.2mb 53f 62f
6:54pm 15 17 mph 1018.1mb 53f 61f
6:48pm  -  mph - 53f -
6:42pm  -  mph - 53f -
6:36pm 16 20 mph 1018mb 53f 62f
6:30pm 15 20 mph 1018mb 53f 62f
6:24pm 18 21 mph 1017.9mb 53f 62f
6:18pm  -  mph - 53f -
6:12pm 13 20 mph 1017.8mb 52f 62f
6:06pm 15 18 mph 1017.9mb 52f 62f
6:00pm  -  mph - 52f -
5:54pm  -  mph - 52f -
5:48pm  -  mph - 52f -
5:42pm 15 17 mph 1017.6mb 52f 61f
5:36pm 15 18 mph 1017.5mb 52f 61f
5:30pm 17 18 mph 1017.4mb 52f 63f
5:24pm 16 17 mph 1017.4mb 52f 63f
5:18pm  -  mph - 52f -
5:12pm 15 20 mph 1017.2mb 52f 67f
5:06pm 16 18 mph 1017.1mb 52f 68f
5:00pm 16 17 mph 1017.1mb 52f 68f
4:54pm  -  mph - 52f -
4:48pm  -  mph - 52f -
4:42pm 15 16 mph 1017mb 52f 67f
4:36pm 13 14 mph 1017.1mb 52f 69f
4:30pm 13 14 mph 1017.1mb 51f 69f
4:24pm 14 15 mph 1017.2mb 51f 68f
4:18pm 14 15 mph - 51f -
4:12pm 13 15 mph 1017.2mb 50f 69f
4:06pm 13 15 mph 1017.3mb 50f 69f
4:00pm 14 15 mph 1017.3mb 50f 68f
3:54pm 14 15 mph 1017.3mb 49f 68f
3:48pm 14 16 mph - 49f -
3:42pm 15
mph
1017.3mb 49f 67f
3:36pm 15 16 mph 1017.4mb 49f 69f
3:30pm 13 14 mph 1017.4mb 48f 66f
3:24pm 13 14 mph 1017.5mb 48f 67f
3:18pm  -  mph - 48f -
3:12pm 14 15 mph 1017.6mb 48f 66f
3:06pm 11 14 mph 1017.6mb 48f 66f
3:00pm 14 15 mph 1017.6mb 47f 67f
2:54pm 14 15 mph 1017.7mb 47f 67f
2:48pm  -  mph - 47f -
2:42pm 13 14 mph 1017.7mb 47f 68f
2:36pm 14
mph
1017.8mb 47f 67f
2:30pm 13 15 mph 1017.8mb 47f 66f
2:24pm 14
mph
1017.8mb 47f 65f
2:18pm  -  mph - 47f -
2:12pm  -  mph - 47f -
2:06pm 11 13 mph 1017.9mb 47f 67f
2:00pm 11 13 mph 1017.9mb 47f 68f
1:54pm 11 14 mph 1017.9mb 47f 68f
1:48pm  -  mph - 47f -
1:42pm 11 13 mph 1017.8mb 46f 68f
1:36pm 9 10 mph 1017.9mb 47f 68f
1:30pm 6 8 mph 1017.9mb 47f 70f
1:24pm 7
mph
1017.9mb 47f 70f
1:18pm 6 7 mph - 47f -
1:12pm 3
mph
1017.9mb 47f 70f
1:06pm 2 3 mph 1017.9mb 47f 70f
1:00pm 3
mph
1017.9mb 47f 70f
12:54pm 2
mph
1018mb 47f 69f
12:48pm 2
mph
1018mb 47f 69f
12:42pm 1 2 mph 1018mb 47f 69f
12:36pm  -  2 mph 1018.1mb 47f 69f
12:30pm 1 2 mph 1018.1mb 47f 69f
12:24pm 1
mph
1018.2mb 47f 69f
12:18pm 1 2 mph 1018.2mb - -
12:12pm 1 2 mph 1018.2mb 47f 68f
12:06pm  -  1 mph 1018.3mb 47f 68f
12:00pm  -  2 mph 1018.3mb 47f 67f
11:54am 2
mph
1018.3mb 47f 67f
11:48am 2
mph
1018.4mb 47f -
11:42am 1
mph
1018.3mb 47f 66f
11:36am  -  1 mph 1018.3mb 47f 67f
11:30am  -  2 mph 1018.3mb 47f 65f
11:24am 1
mph
1018.3mb 47f 66f
11:18am  -  mph - 47f -
11:12am  -  1 mph 1018.4mb 47f 66f
11:06am  -  mph 1018.4mb 47f 65f
11:00am  -  1 mph 1018.4mb 47f 63f
10:54am  -  1 mph 1018.4mb 47f 62f
10:48am  -  mph - 47f -
10:42am 2
mph
1018.3mb 46f 61f
10:36am 2
mph
1018.3mb 47f 61f
10:30am 1 2 mph 1018.3mb 47f 61f
10:24am  -  2 mph 1018.3mb 47f 61f
10:18am 1
mph
1018.3mb 47f 61f
10:12am  -  2 mph 1018.2mb 47f 61f
10:06am  -  mph - 47f -
10:00am  -  mph - 46f -
9:54am 2 3 mph 1018.1mb 46f 60f
9:48am  -  mph - 46f -
9:42am 2 3 mph 1018.1mb 46f 58f
9:36am  -  mph - 46f -
9:30am 3
mph
1018.2mb 46f 57f
9:24am 3
mph
1018.2mb 46f 57f
9:18am  -  mph - 46f -
9:12am 2
mph
1018.3mb 46f 56f
9:06am 1 2 mph 1018.3mb 46f 56f
9:00am 2 3 mph 1018.4mb 46f 55f
8:54am 2 3 mph 1018.4mb 47f 55f
8:48am  -  mph - 47f -
8:42am  -  mph - 47f -
8:36am  -  2 mph 1018.4mb 47f 55f
8:30am 2 3 mph 1018.4mb 47f 53f
8:24am 2 5 mph 1018.4mb 47f 53f
8:18am  -  mph - 48f -
8:12am 5
mph
1018.2mb 48f 53f
8:06am  -  mph - 48f -
8:00am  -  mph - 48f -
7:54am 6
mph
1018.1mb 48f 52f
7:48am  -  mph - 48f -
7:42am 6 7 mph 1018mb 49f 52f
7:36am 6 8 mph 1018mb 49f 52f
7:30am 6 7 mph 1018mb 49f 51f
7:24am 6 7 mph 1017.9mb 49f 50f
7:18am 6 7 mph 1017.9mb 49f 50f
7:12am 6
mph
1017.9mb 49f 49f
7:06am 5 6 mph 1017.8mb 49f 49f
7:00am 5 6 mph 1017.7mb 49f 49f
6:54am 5 6 mph 1017.6mb 49f 49f
6:48am 3 6 mph 1017.5mb 49f 49f
6:42am 3 6 mph 1017.5mb 48f 49f
6:36am 5
mph
1017.4mb 47f 49f
6:30am 3 6 mph 1017.3mb 47f 48f
6:24am 5 6 mph 1017.3mb 47f 49f
6:18am 5 6 mph 1017.2mb 47f 49f
6:12am 5 6 mph 1017.1mb 48f 49f
6:06am 3 5 mph 1017mb 48f 50f
6:00am 5 6 mph 1017mb 49f 50f
5:54am 3 6 mph 1017mb 49f 50f
5:48am 3 6 mph 1016.9mb 49f 50f
5:42am 5 6 mph 1017mb 49f 50f
5:36am 5 6 mph 1017mb 49f 49f
5:30am 3 5 mph 1017mb 49f 49f
5:24am 3 5 mph 1017mb 49f 48f
5:18am 3 6 mph 1017mb 49f 48f
5:12am 6 7 mph 1017mb 49f 48f
5:06am 5 6 mph 1017mb 49f 49f
5:00am 5 7 mph 1017mb 49f 49f
4:54am 5 7 mph 1017mb 49f 50f
4:48am 5 6 mph 1017mb 49f 50f
4:42am 3 6 mph 1017mb 49f 50f
4:36am 5 6 mph 1017mb 49f 50f
4:30am 5 6 mph 1017mb 49f 50f
4:24am 5 6 mph 1017mb 49f 50f
4:18am 5 6 mph 1016.9mb 49f 49f
4:12am 5 6 mph 1017mb 49f 49f
4:06am 5 6 mph 1016.9mb 49f 49f
4:00am 5 6 mph 1016.8mb 49f 49f
3:54am 5 6 mph 1016.8mb 49f 49f
3:48am 5 6 mph 1016.8mb 48f 49f
3:42am 5 7 mph 1016.8mb 48f 50f
3:36am 3 7 mph 1016.7mb 48f 49f
3:30am 5 7 mph 1016.7mb 48f 49f
3:24am 5 7 mph 1016.6mb 48f 49f
3:18am 5 6 mph 1016.6mb 47f 50f
3:12am 5 6 mph 1016.7mb 47f 50f
3:06am 3 6 mph 1016.7mb 47f 50f
3:00am 3 5 mph 1016.6mb 47f 49f
2:54am  -  mph - 47f -
2:48am 3 5 mph 1016.6mb 47f 49f
2:42am  -  mph - - 49f
2:30am  -  mph - 47f -
2:24am 5 6 mph 1016.7mb 47f 49f
2:18am  -  mph - 46f -
2:12am 7 8 mph 1016.7mb 47f 50f
2:06am  -  mph - 46f -
2:00am  -  mph - 46f -
1:54am 6 8 mph 1016.7mb 47f 50f
1:48am 7
mph
1016.8mb 46f 50f
1:42am 7 8 mph 1016.8mb 46f 50f
1:36am 8 10 mph 1016.8mb 46f 50f
1:30am  -  mph - 47f -
1:24am 6 8 mph 1017mb 47f 50f
1:18am 8 10 mph 1016.9mb 47f 50f
1:12am 8 9 mph 1016.9mb 47f 50f
1:06am 8 9 mph 1016.9mb 47f 50f
1:00am 7 8 mph 1017mb 46f 50f
12:54am 5
mph
1017mb 47f 50f
12:48am 3 5 mph 1016.9mb 47f 50f
12:42am 3 6 mph 1016.8mb 47f 49f
12:36am 3 6 mph 1016.8mb 47f 50f
12:30am 5 6 mph 1016.9mb 47f 49f
12:24am 3 5 mph 1017mb 47f 49f
12:18am 3
mph
1017mb 47f 49f
12:12am 3 6 mph 1016.9mb 47f 49f
12:06am  -  mph - 47f -
12:00am  -  mph - 47f -
Sat 05/02 11:54pm 6 7 mph 1017mb 47f 49f
11:48pm 5 6 mph - 47f -
11:42pm 5 7 mph 1016.8mb 47f 49f
11:36pm 3 6 mph 1016.9mb 47f 49f
11:30pm 5 7 mph 1016.9mb 47f 49f
11:24pm 5 6 mph 1017mb 47f 49f
11:18pm  -  mph - 47f -
11:12pm 6 8 mph 1016.8mb 47f 49f
11:06pm 6 8 mph 1016.9mb 47f 49f
11:00pm 7 8 mph 1016.9mb 47f 49f
10:54pm 8 9 mph 1016.8mb 47f 49f
10:48pm  -  mph - 47f -
10:42pm 8 10 mph 1016.8mb 47f 49f
10:36pm 9 10 mph 1016.9mb 47f 49f
10:30pm 10 11 mph 1016.9mb 47f 49f
10:24pm 8 10 mph 1016.8mb 47f 49f
10:18pm 8 10 mph 1016.7mb 47f 49f
10:12pm 8 9 mph 1016.6mb 47f 49f
10:06pm 8 10 mph 1016.5mb 47f 49f
10:00pm 8 11 mph 1016.4mb 47f 49f
9:54pm  -  mph - 47f -
9:48pm  -  mph - 47f -
9:42pm 8 10 mph 1016.3mb 47f 49f
9:36pm 9 11 mph 1016.2mb 47f 49f
9:30pm 9 10 mph 1016.1mb 47f 49f
9:24pm 8 11 mph 1016.1mb 47f 49f
9:18pm 10 11 mph 1016mb 47f 49f
9:12pm 10 11 mph 1016mb 46f 49f
9:06pm 9 11 mph 1016mb 46f 49f
9:00pm 9 10 mph 1015.9mb 46f 49f
8:54pm 9 11 mph 1015.8mb 47f 49f
8:48pm 10 11 mph 1015.8mb 46f 49f
8:42pm 9 13 mph 1015.6mb 47f 49f
8:36pm 8 10 mph 1015.5mb 47f 49f
8:30pm 8 10 mph 1015.4mb 47f 49f
8:24pm 9 10 mph 1015.3mb 48f 49f
8:18pm 9 11 mph 1015.3mb 48f 49f
8:12pm 10 13 mph 1015.3mb 49f 50f
8:06pm 11 15 mph 1015.2mb 49f 50f
8:00pm 14 15 mph 1015.2mb 50f 50f
7:54pm 11 15 mph 1015.1mb 50f 50f
7:48pm 14 16 mph 1015.2mb 50f 50f
7:42pm 14 15 mph 1015.1mb 51f 50f
7:36pm 11 14 mph 1014.9mb 51f 51f
7:30pm 11 14 mph 1014.8mb 51f 51f
7:24pm 14 16 mph 1014.7mb 51f 51f
7:18pm 11 14 mph 1014.6mb 51f 52f
7:12pm 13 15 mph 1014.6mb 50f 52f
7:06pm 13 16 mph 1014.6mb 51f 53f
7:00pm 14 16 mph 1014.6mb 51f 52f
6:54pm 13 14 mph 1014.5mb 51f 52f
6:48pm 13 14 mph 1014.4mb 51f 53f
6:42pm 10 15 mph 1014.4mb 51f 54f
6:36pm 13 15 mph 1014.4mb 51f 53f
6:30pm 11 14 mph 1014.3mb 51f 54f
6:24pm 10 14 mph 1014.3mb 51f 53f
6:18pm 13 14 mph 1014.3mb 51f 53f
6:12pm 11 14 mph 1014.2mb 51f 54f
6:06pm 13 14 mph 1014.2mb 51f 54f
6:00pm 13 14 mph 1014.2mb 51f 54f
5:54pm 13 16 mph 1014.1mb 51f 54f
5:48pm 13 14 mph 1014mb 51f 54f
5:42pm 13 15 mph 1013.9mb 51f 55f
5:36pm 14 15 mph 1013.9mb 51f 55f
5:30pm 13 15 mph 1013.9mb 51f 55f
5:24pm 13 15 mph 1013.9mb 51f 55f
5:18pm  -  mph - 51f -
5:12pm 11 14 mph 1013.8mb 51f 56f
5:06pm 11 14 mph 1013.7mb 51f 56f
5:00pm 13 15 mph 1013.7mb 51f 56f
4:54pm 11 14 mph 1013.6mb 51f 56f
4:48pm  -  mph - 51f -
4:42pm  -  mph - 51f -
4:36pm 13 15 mph 1013.6mb 50f 55f
4:30pm 13 16 mph 1013.5mb 50f 55f
4:24pm 15 16 mph 1013.6mb 50f 55f
4:18pm 14 16 mph - 50f -
4:12pm 14 15 mph 1013.6mb 50f 55f
4:06pm 14 16 mph 1013.6mb 50f 55f
4:00pm 14 16 mph 1013.6mb 49f 56f
3:54pm 14 16 mph 1013.6mb 49f 56f
3:48pm 14 16 mph 1013.7mb 49f -
3:42pm 13 16 mph 1013.7mb 49f 56f
3:36pm 14 16 mph 1013.8mb 48f 56f
3:30pm 14 16 mph 1013.8mb 48f 55f
3:24pm 15 17 mph 1013.8mb 48f 55f
3:18pm 14 17 mph 1014mb 48f 56f
3:12pm 16 17 mph 1014mb 47f 55f
3:06pm 16 18 mph 1014mb 47f 55f
3:00pm 17 20 mph 1014mb 47f 55f
2:54pm 16 18 mph 1014mb 47f 56f
2:48pm 15 17 mph 1014mb 47f 56f
2:42pm 15 18 mph 1014mb 47f 56f
2:36pm 16 18 mph 1014mb 46f 57f
2:30pm 16 18 mph 1014mb 46f 58f
2:24pm 16 18 mph 1013.9mb 46f 58f
2:18pm 11 17 mph 1013.9mb 46f 60f
2:12pm 13 17 mph 1013.9mb 46f 60f
2:06pm 2 3 mph 1013.9mb 46f 61f
2:00pm 1 3 mph 1014mb 46f 60f
1:54pm 2 6 mph 1014mb 46f 59f
1:48pm  -  mph - 46f -
1:42pm 6 8 mph 1014.1mb 46f 58f
1:36pm 5 7 mph 1014.2mb 46f 59f
1:30pm 6 7 mph 1014.2mb 46f 58f
1:24pm 6 7 mph 1014.2mb 46f 59f
1:18pm 6 8 mph 1014.3mb 46f 58f
1:12pm 3 7 mph 1014.3mb 46f 59f
1:06pm 2 5 mph 1014.3mb 46f 59f
1:00pm 3 5 mph 1014.4mb 46f 59f
12:54pm  -  mph - 46f -
12:48pm  -  mph - 46f -
12:42pm 2
mph
1014.5mb 46f 58f
12:36pm 2 5 mph 1014.6mb 46f 58f
12:30pm 3 6 mph 1014.6mb 46f 57f
12:24pm 5 6 mph 1014.7mb 46f 55f
12:18pm 6
mph
- 46f -
12:12pm 5 6 mph 1014.8mb 46f 58f
12:06pm 5 6 mph 1014.8mb 46f 58f
12:00pm 6 7 mph 1014.8mb 46f 58f
11:54am 6 7 mph 1014.9mb 46f 59f
11:48am 3 6 mph 1014.9mb 46f 58f
11:42am 5 7 mph 1014.9mb 46f 58f
11:36am 6
mph
1015mb 46f 58f
11:30am 3 7 mph 1015mb 46f 58f
11:24am 5 6 mph 1015.1mb 46f 57f
11:18am 6
mph
1015.1mb 46f 57f
11:12am 6 7 mph 1015.1mb 46f 57f
11:06am  -  mph - 46f -
11:00am  -  mph - 46f -
10:54am 5 7 mph 1015.1mb 46f 56f
10:48am  -  mph - 46f -
10:42am 5 6 mph 1015.1mb 46f 56f
10:36am 3 5 mph 1015.1mb 46f 56f
10:30am  -  mph - 46f -
10:24am 3 5 mph 1015.1mb 46f 55f
10:18am  -  mph - 46f -
10:12am 2 3 mph 1015.1mb 46f 55f
10:06am 2
mph
1015mb 46f 54f
10:00am 1 2 mph 1015mb 46f 55f
9:54am  -  1 mph 1015.1mb 46f 56f
9:48am  -  mph - 46f -
9:42am  -  mph - 46f -
9:36am  -  1 mph 1015.1mb 46f 54f
9:30am 1 2 mph 1015.2mb 46f 51f
9:24am 2
mph
1015.2mb 46f 51f
9:18am  -  mph - 46f -
9:12am 1
mph
1015.3mb 46f 51f
9:06am  -  1 mph 1015.3mb 46f 51f
9:00am 1 3 mph 1015.4mb 46f 51f
8:54am 2 3 mph 1015.4mb 46f 51f
8:48am  -  mph - 46f -
8:42am  -  mph - 46f -
8:36am 2 5 mph 1015.3mb 46f 51f
8:30am 5 6 mph 1015.2mb 46f 50f
8:24am 3 5 mph 1015.1mb 46f 50f
8:18am 2 3 mph 1015.1mb 46f -
8:12am 1 2 mph 1015.1mb 47f 49f
8:06am 1 2 mph 1015.2mb 47f 49f
8:00am 2 3 mph 1015.1mb 47f 49f
7:54am  -  2 mph 1015.1mb 47f 51f
7:48am  -  1 mph 1015.1mb 47f 50f
7:42am  -  1 mph 1015.1mb 47f 48f
7:36am  -  mph 1015.2mb 47f 47f
7:30am  -  1 mph 1015.1mb 47f 47f
7:24am  -  1 mph 1015mb 48f 46f
7:18am  -  2 mph 1015mb 47f 46f
7:12am 1
mph
1015mb 47f 46f
7:06am  -  2 mph 1015.1mb 47f 46f
7:00am 1 2 mph 1015.1mb 48f 46f
6:54am  -  1 mph 1015mb 48f 45f
6:48am 1
mph
1015mb 48f 46f
6:42am  -  2 mph 1014.9mb 48f 46f
6:36am  -  1 mph 1014.9mb 49f 46f
6:30am  -  1 mph 1014.9mb 49f 46f
6:24am 1 2 mph 1014.9mb 49f 46f
6:18am 2
mph
1014.8mb 49f 46f
6:12am 2
mph
1014.8mb 49f 46f
6:06am 2
mph
1014.7mb 49f 46f
6:00am 2
mph
1014.6mb 49f 46f
5:54am 2 3 mph 1014.5mb 49f 46f
5:48am 2 3 mph 1014.5mb 49f 46f
5:42am 1
mph
1014.5mb 49f 46f
5:36am  -  1 mph 1014.4mb 49f 46f
5:30am  -  1 mph 1014.4mb 49f 46f
5:24am  -  1 mph 1014.4mb 49f 46f
5:18am  -  mph 1014.3mb 49f 46f
5:12am  -  mph 1014.4mb 49f 46f
5:06am  -  mph 1014.4mb 49f 46f
5:00am  -  1 mph 1014.4mb 49f 46f
4:54am  -  2 mph 1014.4mb 49f 46f
4:48am 2
mph
1014.3mb 49f 46f
4:42am 2 3 mph 1014.3mb 49f 46f
4:36am 2 3 mph 1014.3mb 49f 46f
4:30am 2 3 mph 1014.4mb 49f 46f